sensor_id;sensor_type;location;lat;lon;timestamp;temperature;humidity
16767;DHT22;8501;49.926;8.404;2022-12-08T00:01:16;4.60;99.90
16767;DHT22;8501;49.926;8.404;2022-12-08T00:03:41;4.60;99.90
16767;DHT22;8501;49.926;8.404;2022-12-08T00:09:03;4.60;99.90
16767;DHT22;8501;49.926;8.404;2022-12-08T00:14:56;4.60;99.90
16767;DHT22;8501;49.926;8.404;2022-12-08T00:17:15;4.60;99.90
16767;DHT22;8501;49.926;8.404;2022-12-08T00:19:42;4.60;99.90
16767;DHT22;8501;49.926;8.404;2022-12-08T00:22:08;4.60;99.90
16767;DHT22;8501;49.926;8.404;2022-12-08T00:24:37;4.60;99.90
16767;DHT22;8501;49.926;8.404;2022-12-08T00:27:10;4.60;99.90
16767;DHT22;8501;49.926;8.404;2022-12-08T00:29:36;4.60;99.90
16767;DHT22;8501;49.926;8.404;2022-12-08T00:32:02;4.60;99.90
16767;DHT22;8501;49.926;8.404;2022-12-08T00:34:29;4.60;99.90
16767;DHT22;8501;49.926;8.404;2022-12-08T00:36:55;4.60;99.90
16767;DHT22;8501;49.926;8.404;2022-12-08T00:39:20;4.60;99.90
16767;DHT22;8501;49.926;8.404;2022-12-08T00:41:46;4.60;99.90
16767;DHT22;8501;49.926;8.404;2022-12-08T00:44:30;4.60;99.90
16767;DHT22;8501;49.926;8.404;2022-12-08T00:46:56;4.60;99.90
16767;DHT22;8501;49.926;8.404;2022-12-08T00:49:21;4.60;99.90
16767;DHT22;8501;49.926;8.404;2022-12-08T00:51:47;4.60;99.90
16767;DHT22;8501;49.926;8.404;2022-12-08T00:54:13;4.70;99.90
16767;DHT22;8501;49.926;8.404;2022-12-08T00:56:39;4.60;99.90
16767;DHT22;8501;49.926;8.404;2022-12-08T00:59:05;4.60;99.90
16767;DHT22;8501;49.926;8.404;2022-12-08T01:01:32;4.60;99.90
16767;DHT22;8501;49.926;8.404;2022-12-08T01:04:01;4.60;99.90
16767;DHT22;8501;49.926;8.404;2022-12-08T01:06:27;4.60;99.90
16767;DHT22;8501;49.926;8.404;2022-12-08T01:08:53;4.60;99.90
16767;DHT22;8501;49.926;8.404;2022-12-08T01:11:19;4.60;99.90
16767;DHT22;8501;49.926;8.404;2022-12-08T01:13:45;4.60;99.90
16767;DHT22;8501;49.926;8.404;2022-12-08T01:16:19;4.60;99.90
16767;DHT22;8501;49.926;8.404;2022-12-08T01:18:45;4.60;99.90
16767;DHT22;8501;49.926;8.404;2022-12-08T01:21:10;4.60;99.90
16767;DHT22;8501;49.926;8.404;2022-12-08T01:23:36;4.60;99.90
16767;DHT22;8501;49.926;8.404;2022-12-08T01:26:06;4.60;99.90
16767;DHT22;8501;49.926;8.404;2022-12-08T01:28:32;4.60;99.90
16767;DHT22;8501;49.926;8.404;2022-12-08T01:30:59;4.60;99.90
16767;DHT22;8501;49.926;8.404;2022-12-08T01:33:25;4.60;99.90
16767;DHT22;8501;49.926;8.404;2022-12-08T01:35:52;4.60;99.90
16767;DHT22;8501;49.926;8.404;2022-12-08T01:38:18;4.60;99.90
16767;DHT22;8501;49.926;8.404;2022-12-08T01:40:43;4.60;99.90
16767;DHT22;8501;49.926;8.404;2022-12-08T01:43:17;4.60;99.90
16767;DHT22;8501;49.926;8.404;2022-12-08T01:45:43;4.60;99.90
16767;DHT22;8501;49.926;8.404;2022-12-08T01:48:22;4.70;99.90
16767;DHT22;8501;49.926;8.404;2022-12-08T01:50:48;4.70;99.90
16767;DHT22;8501;49.926;8.404;2022-12-08T01:53:25;4.70;99.90
16767;DHT22;8501;49.926;8.404;2022-12-08T01:55:55;4.60;99.90
16767;DHT22;8501;49.926;8.404;2022-12-08T01:58:30;4.70;99.90
16767;DHT22;8501;49.926;8.404;2022-12-08T02:00:56;4.60;99.90
16767;DHT22;8501;49.926;8.404;2022-12-08T02:03:46;4.70;99.90
16767;DHT22;8501;49.926;8.404;2022-12-08T02:06:14;4.60;99.90
16767;DHT22;8501;49.926;8.404;2022-12-08T02:08:41;4.60;99.90
16767;DHT22;8501;49.926;8.404;2022-12-08T02:11:10;4.60;99.90
16767;DHT22;8501;49.926;8.404;2022-12-08T02:13:36;4.60;99.90
16767;DHT22;8501;49.926;8.404;2022-12-08T02:22:13;4.60;99.90
16767;DHT22;8501;49.926;8.404;2022-12-08T02:43:43;4.50;99.90
16767;DHT22;8501;49.926;8.404;2022-12-08T02:46:14;4.60;99.90
16767;DHT22;8501;49.926;8.404;2022-12-08T02:48:42;4.50;99.90
16767;DHT22;8501;49.926;8.404;2022-12-08T02:51:08;4.50;99.90
16767;DHT22;8501;49.926;8.404;2022-12-08T02:53:34;4.50;99.90
16767;DHT22;8501;49.926;8.404;2022-12-08T03:05:37;4.50;99.90
16767;DHT22;8501;49.926;8.404;2022-12-08T03:10:56;4.50;99.90
16767;DHT22;8501;49.926;8.404;2022-12-08T03:13:51;4.50;99.90
16767;DHT22;8501;49.926;8.404;2022-12-08T03:16:19;4.50;99.90
16767;DHT22;8501;49.926;8.404;2022-12-08T03:18:48;4.50;99.90
16767;DHT22;8501;49.926;8.404;2022-12-08T03:21:17;4.40;99.90
16767;DHT22;8501;49.926;8.404;2022-12-08T03:23:45;4.50;99.90
16767;DHT22;8501;49.926;8.404;2022-12-08T03:26:18;4.40;99.90
16767;DHT22;8501;49.926;8.404;2022-12-08T03:28:47;4.40;99.90
16767;DHT22;8501;49.926;8.404;2022-12-08T03:31:13;4.50;99.90
16767;DHT22;8501;49.926;8.404;2022-12-08T03:33:42;4.50;99.90
16767;DHT22;8501;49.926;8.404;2022-12-08T03:36:10;4.50;99.90
16767;DHT22;8501;49.926;8.404;2022-12-08T03:38:41;4.50;99.90
16767;DHT22;8501;49.926;8.404;2022-12-08T03:41:08;4.40;99.90
16767;DHT22;8501;49.926;8.404;2022-12-08T03:43:46;4.40;99.90
16767;DHT22;8501;49.926;8.404;2022-12-08T03:46:14;4.40;99.90
16767;DHT22;8501;49.926;8.404;2022-12-08T03:48:39;4.50;99.90
16767;DHT22;8501;49.926;8.404;2022-12-08T03:51:05;4.40;99.90
16767;DHT22;8501;49.926;8.404;2022-12-08T03:53:30;4.40;99.90
16767;DHT22;8501;49.926;8.404;2022-12-08T03:55:56;4.40;99.90
16767;DHT22;8501;49.926;8.404;2022-12-08T03:58:22;4.40;99.90
16767;DHT22;8501;49.926;8.404;2022-12-08T04:00:47;4.40;99.90
16767;DHT22;8501;49.926;8.404;2022-12-08T04:03:13;4.40;99.90
16767;DHT22;8501;49.926;8.404;2022-12-08T04:05:38;4.40;99.90
16767;DHT22;8501;49.926;8.404;2022-12-08T04:08:04;4.40;99.90
16767;DHT22;8501;49.926;8.404;2022-12-08T04:10:29;4.40;99.90
16767;DHT22;8501;49.926;8.404;2022-12-08T04:12:56;4.40;99.90
16767;DHT22;8501;49.926;8.404;2022-12-08T04:15:22;4.40;99.90
16767;DHT22;8501;49.926;8.404;2022-12-08T04:17:47;4.40;99.90
16767;DHT22;8501;49.926;8.404;2022-12-08T04:20:13;4.50;99.90
16767;DHT22;8501;49.926;8.404;2022-12-08T04:22:38;4.50;99.90
16767;DHT22;8501;49.926;8.404;2022-12-08T04:25:04;4.50;99.90
16767;DHT22;8501;49.926;8.404;2022-12-08T04:27:30;4.60;99.90
16767;DHT22;8501;49.926;8.404;2022-12-08T04:29:56;4.60;99.90
16767;DHT22;8501;49.926;8.404;2022-12-08T04:32:21;4.60;99.90
16767;DHT22;8501;49.926;8.404;2022-12-08T04:34:47;4.60;99.90
16767;DHT22;8501;49.926;8.404;2022-12-08T04:37:12;4.60;99.90
16767;DHT22;8501;49.926;8.404;2022-12-08T04:39:38;4.60;99.90
16767;DHT22;8501;49.926;8.404;2022-12-08T04:42:03;4.70;99.90
16767;DHT22;8501;49.926;8.404;2022-12-08T04:44:29;4.70;99.90
16767;DHT22;8501;49.926;8.404;2022-12-08T04:46:54;4.60;99.90
16767;DHT22;8501;49.926;8.404;2022-12-08T04:49:20;4.60;99.90
16767;DHT22;8501;49.926;8.404;2022-12-08T04:51:45;4.60;99.90
16767;DHT22;8501;49.926;8.404;2022-12-08T04:54:11;4.60;99.90
16767;DHT22;8501;49.926;8.404;2022-12-08T04:56:36;4.60;99.90
16767;DHT22;8501;49.926;8.404;2022-12-08T04:59:02;4.60;99.90
16767;DHT22;8501;49.926;8.404;2022-12-08T05:01:27;4.60;99.90
16767;DHT22;8501;49.926;8.404;2022-12-08T05:03:53;4.60;99.90
16767;DHT22;8501;49.926;8.404;2022-12-08T05:06:19;4.60;99.90
16767;DHT22;8501;49.926;8.404;2022-12-08T05:08:44;4.60;99.90
16767;DHT22;8501;49.926;8.404;2022-12-08T05:11:11;4.60;99.90
16767;DHT22;8501;49.926;8.404;2022-12-08T05:13:37;4.60;99.90
16767;DHT22;8501;49.926;8.404;2022-12-08T05:16:08;4.60;99.90
16767;DHT22;8501;49.926;8.404;2022-12-08T05:18:34;4.60;99.90
16767;DHT22;8501;49.926;8.404;2022-12-08T05:21:00;4.60;99.90
16767;DHT22;8501;49.926;8.404;2022-12-08T05:23:26;4.60;99.90
16767;DHT22;8501;49.926;8.404;2022-12-08T05:25:52;4.60;99.90
16767;DHT22;8501;49.926;8.404;2022-12-08T05:28:17;4.60;99.90
16767;DHT22;8501;49.926;8.404;2022-12-08T05:30:43;4.60;99.90
16767;DHT22;8501;49.926;8.404;2022-12-08T05:33:08;4.60;99.90
16767;DHT22;8501;49.926;8.404;2022-12-08T05:35:34;4.50;99.90
16767;DHT22;8501;49.926;8.404;2022-12-08T05:37:59;4.60;99.90
16767;DHT22;8501;49.926;8.404;2022-12-08T05:40:25;4.60;99.90
16767;DHT22;8501;49.926;8.404;2022-12-08T05:42:50;4.50;99.90
16767;DHT22;8501;49.926;8.404;2022-12-08T05:45:17;4.50;99.90
16767;DHT22;8501;49.926;8.404;2022-12-08T05:47:42;4.50;99.90
16767;DHT22;8501;49.926;8.404;2022-12-08T05:50:08;4.50;99.90
16767;DHT22;8501;49.926;8.404;2022-12-08T05:52:34;4.50;99.90
16767;DHT22;8501;49.926;8.404;2022-12-08T05:54:59;4.50;99.90
16767;DHT22;8501;49.926;8.404;2022-12-08T05:57:25;4.50;99.90
16767;DHT22;8501;49.926;8.404;2022-12-08T05:59:50;4.50;99.90
16767;DHT22;8501;49.926;8.404;2022-12-08T06:02:16;4.50;99.90
16767;DHT22;8501;49.926;8.404;2022-12-08T06:04:41;4.50;99.90
16767;DHT22;8501;49.926;8.404;2022-12-08T06:07:08;4.50;99.90
16767;DHT22;8501;49.926;8.404;2022-12-08T06:09:33;4.60;99.90
16767;DHT22;8501;49.926;8.404;2022-12-08T06:11:59;4.50;99.90
16767;DHT22;8501;49.926;8.404;2022-12-08T06:14:25;4.50;99.90
16767;DHT22;8501;49.926;8.404;2022-12-08T06:16:51;4.50;99.90
16767;DHT22;8501;49.926;8.404;2022-12-08T06:19:16;4.50;99.90
16767;DHT22;8501;49.926;8.404;2022-12-08T06:21:42;4.50;99.90
16767;DHT22;8501;49.926;8.404;2022-12-08T06:24:07;4.50;99.90
16767;DHT22;8501;49.926;8.404;2022-12-08T06:26:33;4.40;99.90
16767;DHT22;8501;49.926;8.404;2022-12-08T06:29:00;4.40;99.90
16767;DHT22;8501;49.926;8.404;2022-12-08T06:31:26;4.40;99.90
16767;DHT22;8501;49.926;8.404;2022-12-08T06:33:53;4.40;99.90
16767;DHT22;8501;49.926;8.404;2022-12-08T06:36:20;4.40;99.90
16767;DHT22;8501;49.926;8.404;2022-12-08T06:38:47;4.40;99.90
16767;DHT22;8501;49.926;8.404;2022-12-08T06:41:12;4.40;99.90
16767;DHT22;8501;49.926;8.404;2022-12-08T06:43:38;4.40;99.90
16767;DHT22;8501;49.926;8.404;2022-12-08T06:46:05;4.40;99.90
16767;DHT22;8501;49.926;8.404;2022-12-08T06:48:30;4.40;99.90
16767;DHT22;8501;49.926;8.404;2022-12-08T06:50:56;4.40;99.90
16767;DHT22;8501;49.926;8.404;2022-12-08T06:53:21;4.40;99.90
16767;DHT22;8501;49.926;8.404;2022-12-08T06:55:52;4.40;99.90
16767;DHT22;8501;49.926;8.404;2022-12-08T06:58:18;4.40;99.90
16767;DHT22;8501;49.926;8.404;2022-12-08T07:00:44;4.40;99.90
16767;DHT22;8501;49.926;8.404;2022-12-08T07:03:11;4.40;99.90
16767;DHT22;8501;49.926;8.404;2022-12-08T07:05:37;4.40;99.90
16767;DHT22;8501;49.926;8.404;2022-12-08T07:08:05;4.40;99.90
16767;DHT22;8501;49.926;8.404;2022-12-08T07:10:31;4.40;99.90
16767;DHT22;8501;49.926;8.404;2022-12-08T07:12:57;4.40;99.90
16767;DHT22;8501;49.926;8.404;2022-12-08T07:15:22;4.30;99.90
16767;DHT22;8501;49.926;8.404;2022-12-08T07:17:48;4.30;99.90
16767;DHT22;8501;49.926;8.404;2022-12-08T07:20:14;4.30;99.90
16767;DHT22;8501;49.926;8.404;2022-12-08T07:22:40;4.30;99.90
16767;DHT22;8501;49.926;8.404;2022-12-08T07:25:05;4.40;99.90
16767;DHT22;8501;49.926;8.404;2022-12-08T07:27:31;4.30;99.90
16767;DHT22;8501;49.926;8.404;2022-12-08T07:29:57;4.30;99.90
16767;DHT22;8501;49.926;8.404;2022-12-08T07:32:23;4.30;99.90
16767;DHT22;8501;49.926;8.404;2022-12-08T07:34:49;4.30;99.90
16767;DHT22;8501;49.926;8.404;2022-12-08T07:37:15;4.30;99.90
16767;DHT22;8501;49.926;8.404;2022-12-08T07:39:40;4.30;99.90
16767;DHT22;8501;49.926;8.404;2022-12-08T07:42:06;4.30;99.90
16767;DHT22;8501;49.926;8.404;2022-12-08T07:44:31;4.30;99.90
16767;DHT22;8501;49.926;8.404;2022-12-08T07:46:57;4.30;99.90
16767;DHT22;8501;49.926;8.404;2022-12-08T07:49:22;4.30;99.90
16767;DHT22;8501;49.926;8.404;2022-12-08T07:51:48;4.30;99.90
16767;DHT22;8501;49.926;8.404;2022-12-08T07:54:13;4.30;99.90
16767;DHT22;8501;49.926;8.404;2022-12-08T07:56:39;4.30;99.90
16767;DHT22;8501;49.926;8.404;2022-12-08T07:59:05;4.30;99.90
16767;DHT22;8501;49.926;8.404;2022-12-08T08:01:32;4.30;99.90
16767;DHT22;8501;49.926;8.404;2022-12-08T08:03:59;4.30;99.90
16767;DHT22;8501;49.926;8.404;2022-12-08T08:06:26;4.30;99.90
16767;DHT22;8501;49.926;8.404;2022-12-08T08:08:52;4.40;99.90
16767;DHT22;8501;49.926;8.404;2022-12-08T08:11:18;4.40;99.90
16767;DHT22;8501;49.926;8.404;2022-12-08T08:13:44;4.40;99.90
16767;DHT22;8501;49.926;8.404;2022-12-08T08:16:10;4.30;99.90
16767;DHT22;8501;49.926;8.404;2022-12-08T08:18:37;4.40;99.90
16767;DHT22;8501;49.926;8.404;2022-12-08T08:21:03;4.40;99.90
16767;DHT22;8501;49.926;8.404;2022-12-08T08:23:29;4.40;99.90
16767;DHT22;8501;49.926;8.404;2022-12-08T08:25:58;4.40;99.90
16767;DHT22;8501;49.926;8.404;2022-12-08T08:28:23;4.40;99.90
16767;DHT22;8501;49.926;8.404;2022-12-08T08:30:49;4.40;99.90
16767;DHT22;8501;49.926;8.404;2022-12-08T08:33:14;4.40;99.90
16767;DHT22;8501;49.926;8.404;2022-12-08T08:35:40;4.40;99.90
16767;DHT22;8501;49.926;8.404;2022-12-08T08:38:06;4.30;99.90
16767;DHT22;8501;49.926;8.404;2022-12-08T08:40:32;4.40;99.90
16767;DHT22;8501;49.926;8.404;2022-12-08T08:43:00;4.40;99.90
16767;DHT22;8501;49.926;8.404;2022-12-08T08:45:25;4.40;99.90
16767;DHT22;8501;49.926;8.404;2022-12-08T08:47:51;4.40;99.90
16767;DHT22;8501;49.926;8.404;2022-12-08T08:50:17;4.40;99.90
16767;DHT22;8501;49.926;8.404;2022-12-08T08:52:42;4.40;99.90
16767;DHT22;8501;49.926;8.404;2022-12-08T08:55:08;4.40;99.90
16767;DHT22;8501;49.926;8.404;2022-12-08T08:57:33;4.40;99.90
16767;DHT22;8501;49.926;8.404;2022-12-08T08:59:59;4.40;99.90
16767;DHT22;8501;49.926;8.404;2022-12-08T09:02:24;4.40;99.90
16767;DHT22;8501;49.926;8.404;2022-12-08T09:04:50;4.40;99.90
16767;DHT22;8501;49.926;8.404;2022-12-08T09:07:16;4.40;99.90
16767;DHT22;8501;49.926;8.404;2022-12-08T09:09:41;4.40;99.90
16767;DHT22;8501;49.926;8.404;2022-12-08T09:12:07;4.40;99.90
16767;DHT22;8501;49.926;8.404;2022-12-08T09:14:33;4.40;99.90
16767;DHT22;8501;49.926;8.404;2022-12-08T09:16:58;4.50;99.90
16767;DHT22;8501;49.926;8.404;2022-12-08T09:19:24;4.50;99.90
16767;DHT22;8501;49.926;8.404;2022-12-08T09:21:50;4.50;99.90
16767;DHT22;8501;49.926;8.404;2022-12-08T09:24:15;4.50;99.90
16767;DHT22;8501;49.926;8.404;2022-12-08T09:26:42;4.50;99.90
16767;DHT22;8501;49.926;8.404;2022-12-08T09:29:09;4.50;99.90
16767;DHT22;8501;49.926;8.404;2022-12-08T09:31:35;4.50;99.90
16767;DHT22;8501;49.926;8.404;2022-12-08T09:34:01;4.60;99.90
16767;DHT22;8501;49.926;8.404;2022-12-08T09:36:26;4.60;99.90
16767;DHT22;8501;49.926;8.404;2022-12-08T09:38:52;4.60;99.90
16767;DHT22;8501;49.926;8.404;2022-12-08T09:44:33;4.60;99.90
16767;DHT22;8501;49.926;8.404;2022-12-08T09:47:05;4.60;99.90
16767;DHT22;8501;49.926;8.404;2022-12-08T09:49:41;4.70;99.90
16767;DHT22;8501;49.926;8.404;2022-12-08T09:52:19;4.70;99.90
16767;DHT22;8501;49.926;8.404;2022-12-08T09:54:46;4.70;99.90
16767;DHT22;8501;49.926;8.404;2022-12-08T09:57:16;4.70;99.90
16767;DHT22;8501;49.926;8.404;2022-12-08T09:59:48;4.70;99.90
16767;DHT22;8501;49.926;8.404;2022-12-08T10:02:21;4.70;99.90
16767;DHT22;8501;49.926;8.404;2022-12-08T10:04:47;4.70;99.90
16767;DHT22;8501;49.926;8.404;2022-12-08T10:07:24;4.80;99.90
16767;DHT22;8501;49.926;8.404;2022-12-08T10:12:46;4.80;99.90
16767;DHT22;8501;49.926;8.404;2022-12-08T10:18:25;4.80;99.90
16767;DHT22;8501;49.926;8.404;2022-12-08T10:20:51;4.80;99.90
16767;DHT22;8501;49.926;8.404;2022-12-08T10:23:33;4.80;99.90
16767;DHT22;8501;49.926;8.404;2022-12-08T10:26:06;4.80;99.90
16767;DHT22;8501;49.926;8.404;2022-12-08T10:28:33;4.90;99.90
16767;DHT22;8501;49.926;8.404;2022-12-08T10:30:59;4.90;99.90
16767;DHT22;8501;49.926;8.404;2022-12-08T10:33:25;5.00;99.90
16767;DHT22;8501;49.926;8.404;2022-12-08T10:35:55;5.00;99.90
16767;DHT22;8501;49.926;8.404;2022-12-08T10:38:31;5.00;99.90
16767;DHT22;8501;49.926;8.404;2022-12-08T10:43:46;5.00;99.90
16767;DHT22;8501;49.926;8.404;2022-12-08T10:46:23;5.00;99.90
16767;DHT22;8501;49.926;8.404;2022-12-08T10:53:58;5.00;99.90
16767;DHT22;8501;49.926;8.404;2022-12-08T10:56:26;5.10;99.90
16767;DHT22;8501;49.926;8.404;2022-12-08T10:59:06;5.00;99.90
16767;DHT22;8501;49.926;8.404;2022-12-08T11:01:38;5.00;99.90
16767;DHT22;8501;49.926;8.404;2022-12-08T11:04:10;5.00;99.90
16767;DHT22;8501;49.926;8.404;2022-12-08T11:06:38;5.10;99.90
16767;DHT22;8501;49.926;8.404;2022-12-08T11:19:42;5.10;99.90
16767;DHT22;8501;49.926;8.404;2022-12-08T11:27:23;5.20;99.90
16767;DHT22;8501;49.926;8.404;2022-12-08T11:29:49;5.20;99.90
16767;DHT22;8501;49.926;8.404;2022-12-08T11:32:14;5.20;99.90
16767;DHT22;8501;49.926;8.404;2022-12-08T11:37:36;5.20;99.90
16767;DHT22;8501;49.926;8.404;2022-12-08T11:45:38;5.40;99.90
16767;DHT22;8501;49.926;8.404;2022-12-08T11:50:52;5.50;99.90
16767;DHT22;8501;49.926;8.404;2022-12-08T11:56:15;5.50;99.90
16767;DHT22;8501;49.926;8.404;2022-12-08T11:58:49;5.60;99.90
16767;DHT22;8501;49.926;8.404;2022-12-08T12:01:24;5.60;99.90
16767;DHT22;8501;49.926;8.404;2022-12-08T12:04:10;5.70;99.90
16767;DHT22;8501;49.926;8.404;2022-12-08T12:12:09;5.70;99.90
16767;DHT22;8501;49.926;8.404;2022-12-08T12:20:23;5.80;99.90
16767;DHT22;8501;49.926;8.404;2022-12-08T12:22:57;5.80;99.90
16767;DHT22;8501;49.926;8.404;2022-12-08T12:25:25;5.80;99.90
16767;DHT22;8501;49.926;8.404;2022-12-08T12:27:56;5.80;99.90
16767;DHT22;8501;49.926;8.404;2022-12-08T12:30:24;5.80;99.90
16767;DHT22;8501;49.926;8.404;2022-12-08T12:32:54;5.80;99.90
16767;DHT22;8501;49.926;8.404;2022-12-08T12:35:40;5.80;99.90
16767;DHT22;8501;49.926;8.404;2022-12-08T12:38:17;5.80;99.90
16767;DHT22;8501;49.926;8.404;2022-12-08T12:41:04;5.80;99.90
16767;DHT22;8501;49.926;8.404;2022-12-08T12:43:37;5.80;99.90
16767;DHT22;8501;49.926;8.404;2022-12-08T12:48:47;5.70;99.90
16767;DHT22;8501;49.926;8.404;2022-12-08T12:54:23;5.70;99.90
16767;DHT22;8501;49.926;8.404;2022-12-08T12:56:51;5.70;99.90
16767;DHT22;8501;49.926;8.404;2022-12-08T13:02:22;5.80;99.90
16767;DHT22;8501;49.926;8.404;2022-12-08T13:05:07;5.70;99.90
16767;DHT22;8501;49.926;8.404;2022-12-08T13:08:28;5.70;99.90
16767;DHT22;8501;49.926;8.404;2022-12-08T13:10:31;5.70;99.90
16767;DHT22;8501;49.926;8.404;2022-12-08T13:15:36;5.70;99.90
16767;DHT22;8501;49.926;8.404;2022-12-08T13:18:04;5.70;99.90
16767;DHT22;8501;49.926;8.404;2022-12-08T13:20:40;5.70;99.90
16767;DHT22;8501;49.926;8.404;2022-12-08T13:23:24;5.80;99.90
16767;DHT22;8501;49.926;8.404;2022-12-08T13:26:22;5.70;99.90
16767;DHT22;8501;49.926;8.404;2022-12-08T13:34:35;5.70;99.90
16767;DHT22;8501;49.926;8.404;2022-12-08T13:44:44;5.70;99.90
16767;DHT22;8501;49.926;8.404;2022-12-08T13:47:14;5.70;99.90
16767;DHT22;8501;49.926;8.404;2022-12-08T13:49:55;5.60;99.90
16767;DHT22;8501;49.926;8.404;2022-12-08T13:52:44;5.70;99.90
16767;DHT22;8501;49.926;8.404;2022-12-08T13:55:16;5.60;99.90
16767;DHT22;8501;49.926;8.404;2022-12-08T13:57:42;5.70;99.90
16767;DHT22;8501;49.926;8.404;2022-12-08T14:00:18;5.70;99.90
16767;DHT22;8501;49.926;8.404;2022-12-08T14:02:50;5.70;99.90
16767;DHT22;8501;49.926;8.404;2022-12-08T14:05:19;5.70;99.90
16767;DHT22;8501;49.926;8.404;2022-12-08T14:07:47;5.70;99.90
16767;DHT22;8501;49.926;8.404;2022-12-08T14:10:18;5.70;99.90
16767;DHT22;8501;49.926;8.404;2022-12-08T14:12:47;5.70;99.90
16767;DHT22;8501;49.926;8.404;2022-12-08T14:15:18;5.70;99.90
16767;DHT22;8501;49.926;8.404;2022-12-08T14:17:54;5.70;99.90
16767;DHT22;8501;49.926;8.404;2022-12-08T14:20:31;5.70;99.90
16767;DHT22;8501;49.926;8.404;2022-12-08T14:22:57;5.70;99.90
16767;DHT22;8501;49.926;8.404;2022-12-08T14:25:26;5.70;99.90
16767;DHT22;8501;49.926;8.404;2022-12-08T14:27:58;5.70;99.90
16767;DHT22;8501;49.926;8.404;2022-12-08T14:30:28;5.70;99.90
16767;DHT22;8501;49.926;8.404;2022-12-08T14:32:57;5.70;99.90
16767;DHT22;8501;49.926;8.404;2022-12-08T14:35:27;5.70;99.90
16767;DHT22;8501;49.926;8.404;2022-12-08T14:38:19;5.70;99.90
16767;DHT22;8501;49.926;8.404;2022-12-08T14:41:00;5.70;99.90
16767;DHT22;8501;49.926;8.404;2022-12-08T14:43:28;5.70;99.90
16767;DHT22;8501;49.926;8.404;2022-12-08T14:46:00;5.70;99.90
16767;DHT22;8501;49.926;8.404;2022-12-08T14:54:12;5.60;99.90
16767;DHT22;8501;49.926;8.404;2022-12-08T14:56:51;5.60;99.90
16767;DHT22;8501;49.926;8.404;2022-12-08T14:59:24;5.60;99.90
16767;DHT22;8501;49.926;8.404;2022-12-08T15:01:53;5.50;99.90
16767;DHT22;8501;49.926;8.404;2022-12-08T15:04:23;5.60;99.90
16767;DHT22;8501;49.926;8.404;2022-12-08T15:06:52;5.50;99.90
16767;DHT22;8501;49.926;8.404;2022-12-08T15:09:36;5.50;99.90
16767;DHT22;8501;49.926;8.404;2022-12-08T15:14:36;5.40;99.90
16767;DHT22;8501;49.926;8.404;2022-12-08T15:17:03;5.40;99.90
16767;DHT22;8501;49.926;8.404;2022-12-08T15:19:31;5.40;99.90
16767;DHT22;8501;49.926;8.404;2022-12-08T15:22:11;5.30;99.90
16767;DHT22;8501;49.926;8.404;2022-12-08T15:24:37;5.30;99.90
16767;DHT22;8501;49.926;8.404;2022-12-08T15:27:03;5.30;99.90
16767;DHT22;8501;49.926;8.404;2022-12-08T15:29:29;5.20;99.90
16767;DHT22;8501;49.926;8.404;2022-12-08T15:31:57;5.20;99.90
16767;DHT22;8501;49.926;8.404;2022-12-08T15:34:23;5.20;99.90
16767;DHT22;8501;49.926;8.404;2022-12-08T15:36:50;5.10;99.90
16767;DHT22;8501;49.926;8.404;2022-12-08T15:39:35;5.10;99.90
16767;DHT22;8501;49.926;8.404;2022-12-08T15:42:02;5.10;99.90
16767;DHT22;8501;49.926;8.404;2022-12-08T15:44:28;5.10;99.90
16767;DHT22;8501;49.926;8.404;2022-12-08T15:46:57;5.00;99.90
16767;DHT22;8501;49.926;8.404;2022-12-08T15:49:23;5.00;99.90
16767;DHT22;8501;49.926;8.404;2022-12-08T15:51:50;5.00;99.90
16767;DHT22;8501;49.926;8.404;2022-12-08T15:54:16;5.00;99.90
16767;DHT22;8501;49.926;8.404;2022-12-08T15:57:02;5.00;99.90
16767;DHT22;8501;49.926;8.404;2022-12-08T15:59:27;4.90;99.90
16767;DHT22;8501;49.926;8.404;2022-12-08T16:01:53;4.80;99.90
16767;DHT22;8501;49.926;8.404;2022-12-08T16:04:20;4.90;99.90
16767;DHT22;8501;49.926;8.404;2022-12-08T16:06:49;4.90;99.90
16767;DHT22;8501;49.926;8.404;2022-12-08T16:09:16;4.80;99.90
16767;DHT22;8501;49.926;8.404;2022-12-08T16:11:43;4.80;99.90
16767;DHT22;8501;49.926;8.404;2022-12-08T16:14:35;4.90;99.90
16767;DHT22;8501;49.926;8.404;2022-12-08T16:17:00;4.90;99.90
16767;DHT22;8501;49.926;8.404;2022-12-08T16:19:26;4.80;99.90
16767;DHT22;8501;49.926;8.404;2022-12-08T16:21:52;4.80;99.90
16767;DHT22;8501;49.926;8.404;2022-12-08T16:24:17;4.80;99.90
16767;DHT22;8501;49.926;8.404;2022-12-08T16:26:43;4.80;99.90
16767;DHT22;8501;49.926;8.404;2022-12-08T16:29:16;4.80;99.90
16767;DHT22;8501;49.926;8.404;2022-12-08T16:31:42;4.80;99.90
16767;DHT22;8501;49.926;8.404;2022-12-08T16:34:08;4.80;99.90
16767;DHT22;8501;49.926;8.404;2022-12-08T16:36:33;4.80;99.90
16767;DHT22;8501;49.926;8.404;2022-12-08T16:38:59;4.80;99.90
16767;DHT22;8501;49.926;8.404;2022-12-08T16:41:24;4.80;99.90
16767;DHT22;8501;49.926;8.404;2022-12-08T16:44:08;4.80;99.90
16767;DHT22;8501;49.926;8.404;2022-12-08T16:46:34;4.80;99.90
16767;DHT22;8501;49.926;8.404;2022-12-08T16:49:00;4.80;99.90
16767;DHT22;8501;49.926;8.404;2022-12-08T16:51:26;4.80;99.90
16767;DHT22;8501;49.926;8.404;2022-12-08T16:53:52;4.80;99.90
16767;DHT22;8501;49.926;8.404;2022-12-08T16:56:20;4.80;99.90
16767;DHT22;8501;49.926;8.404;2022-12-08T16:58:46;4.80;99.90
16767;DHT22;8501;49.926;8.404;2022-12-08T17:01:14;4.80;99.90
16767;DHT22;8501;49.926;8.404;2022-12-08T17:03:41;4.80;99.90
16767;DHT22;8501;49.926;8.404;2022-12-08T17:06:11;4.80;99.90
16767;DHT22;8501;49.926;8.404;2022-12-08T17:08:39;4.80;99.90
16767;DHT22;8501;49.926;8.404;2022-12-08T17:11:05;4.90;99.90
16767;DHT22;8501;49.926;8.404;2022-12-08T17:13:39;4.80;99.90
16767;DHT22;8501;49.926;8.404;2022-12-08T17:16:10;4.80;99.90
16767;DHT22;8501;49.926;8.404;2022-12-08T17:18:36;4.80;99.90
16767;DHT22;8501;49.926;8.404;2022-12-08T17:21:03;4.80;99.90
16767;DHT22;8501;49.926;8.404;2022-12-08T17:23:32;4.80;99.90
16767;DHT22;8501;49.926;8.404;2022-12-08T17:25:59;4.80;99.90
16767;DHT22;8501;49.926;8.404;2022-12-08T17:28:25;4.80;99.90
16767;DHT22;8501;49.926;8.404;2022-12-08T17:30:51;4.80;99.90
16767;DHT22;8501;49.926;8.404;2022-12-08T17:33:17;4.80;99.90
16767;DHT22;8501;49.926;8.404;2022-12-08T17:35:50;4.80;99.90
16767;DHT22;8501;49.926;8.404;2022-12-08T17:38:17;4.80;99.90
16767;DHT22;8501;49.926;8.404;2022-12-08T17:40:43;4.80;99.90
16767;DHT22;8501;49.926;8.404;2022-12-08T17:43:10;4.70;99.90
16767;DHT22;8501;49.926;8.404;2022-12-08T17:45:40;4.70;99.90
16767;DHT22;8501;49.926;8.404;2022-12-08T17:48:06;4.80;99.90
16767;DHT22;8501;49.926;8.404;2022-12-08T17:50:32;4.80;99.90
16767;DHT22;8501;49.926;8.404;2022-12-08T17:52:57;4.70;99.90
16767;DHT22;8501;49.926;8.404;2022-12-08T17:55:23;4.70;99.90
16767;DHT22;8501;49.926;8.404;2022-12-08T17:57:48;4.70;99.90
16767;DHT22;8501;49.926;8.404;2022-12-08T18:00:14;4.70;99.90
16767;DHT22;8501;49.926;8.404;2022-12-08T18:02:40;4.60;99.90
16767;DHT22;8501;49.926;8.404;2022-12-08T18:05:06;4.60;99.90
16767;DHT22;8501;49.926;8.404;2022-12-08T18:07:31;4.60;99.90
16767;DHT22;8501;49.926;8.404;2022-12-08T18:09:57;4.70;99.90
16767;DHT22;8501;49.926;8.404;2022-12-08T18:12:22;4.70;99.90
16767;DHT22;8501;49.926;8.404;2022-12-08T18:14:48;4.70;99.90
16767;DHT22;8501;49.926;8.404;2022-12-08T18:17:14;4.70;99.90
16767;DHT22;8501;49.926;8.404;2022-12-08T18:19:39;4.60;99.90
16767;DHT22;8501;49.926;8.404;2022-12-08T18:22:05;4.60;99.90
16767;DHT22;8501;49.926;8.404;2022-12-08T18:24:30;4.60;99.90